Time;durP1;ratioP1;P1;durP2;ratioP2;P2;SDS_P1;SDS_P2;PMS_P1;PMS_P2;Temp;Humidity;BMP_temperature;BMP_pressure;BME280_temperature;BME280_humidity;BME280_pressure;Samples;Min_cycle;Max_cycle;Signal;HPM_P1;HPM_P2
2022/01/14 00:01:59;;;;;;;21.67;12.52;;;-1.60;99.90;;;;;;5062936;28;20651;-90
2022/01/14 00:04:26;;;;;;;16.50;10.77;;;-1.60;99.90;;;;;;5063935;28;20221;-91
2022/01/14 00:06:53;;;;;;;16.30;11.40;;;-1.60;99.90;;;;;;5065515;28;20209;-92
2022/01/14 00:09:21;;;;;;;17.33;10.60;;;-1.60;99.90;;;;;;5068837;28;20209;-91
2022/01/14 00:11:52;;;;;;;17.88;11.70;;;-1.60;99.90;;;;;;5073422;28;20670;-93
2022/01/14 00:14:35;;;;;;;18.67;12.02;;;-1.70;99.90;;;;;;5074886;28;20224;-91
2022/01/14 00:17:02;;;;;;;21.10;12.35;;;-1.70;99.90;;;;;;5069746;28;20303;-91
2022/01/14 00:19:29;;;;;;;17.88;12.10;;;-1.70;99.90;;;;;;5063097;28;20200;-90
2022/01/14 00:21:56;;;;;;;19.67;11.63;;;-1.70;99.90;;;;;;5064694;28;20208;-90
2022/01/14 00:24:30;;;;;;;18.63;12.15;;;-1.70;99.90;;;;;;5065080;28;20243;-91
2022/01/14 00:32:34;;;;;;;20.48;12.07;;;-1.80;99.90;;;;;;5078620;28;20184;-91
2022/01/14 00:35:01;;;;;;;17.58;12.13;;;-1.70;99.90;;;;;;5079116;28;20211;-91
2022/01/14 00:37:28;;;;;;;22.33;12.10;;;-1.70;99.90;;;;;;5069442;28;20201;-91
2022/01/14 00:39:56;;;;;;;18.58;11.80;;;-1.80;99.90;;;;;;5057180;28;20201;-91
2022/01/14 00:42:23;;;;;;;21.38;12.40;;;-1.80;99.90;;;;;;5058460;28;20224;-89
2022/01/14 00:44:49;;;;;;;18.05;12.00;;;-1.80;99.90;;;;;;5056522;28;20235;-90
2022/01/14 00:47:16;;;;;;;19.60;12.70;;;-1.80;99.90;;;;;;5055005;28;20196;-89
2022/01/14 00:49:43;;;;;;;15.60;11.75;;;-1.80;99.90;;;;;;5055683;28;20205;-89
2022/01/14 00:52:10;;;;;;;19.58;12.73;;;-1.80;99.90;;;;;;5056381;28;20201;-89
2022/01/14 00:54:37;;;;;;;19.92;12.60;;;-1.80;99.90;;;;;;5055800;28;20236;-90
2022/01/14 00:57:27;;;;;;;18.73;12.05;;;-1.90;99.90;;;;;;5055862;28;20211;-90
2022/01/14 00:59:53;;;;;;;24.55;12.23;;;-1.90;99.90;;;;;;5055244;28;20682;-89
2022/01/14 01:02:19;;;;;;;17.30;11.10;;;-1.90;99.90;;;;;;5058076;28;20224;-90
2022/01/14 01:04:48;;;;;;;20.27;12.32;;;-1.90;99.90;;;;;;5056023;28;20245;-90
2022/01/14 01:07:21;;;;;;;20.13;11.95;;;-2.00;99.90;;;;;;5056020;28;20217;-90
2022/01/14 01:09:50;;;;;;;18.92;11.88;;;-2.00;99.90;;;;;;5055378;28;20208;-90
2022/01/14 01:12:31;;;;;;;19.65;12.43;;;-2.00;99.90;;;;;;5054877;28;20209;-89
2022/01/14 01:15:05;;;;;;;19.13;11.98;;;-2.00;99.90;;;;;;5057115;28;20689;-90
2022/01/14 01:17:41;;;;;;;19.38;11.95;;;-2.00;99.90;;;;;;5055736;28;20232;-89
2022/01/14 01:20:12;;;;;;;18.48;11.90;;;-2.00;99.90;;;;;;5054714;28;20284;-90
2022/01/14 01:22:39;;;;;;;22.05;13.38;;;-2.00;99.90;;;;;;5054796;28;20236;-90
2022/01/14 01:25:08;;;;;;;18.08;10.70;;;-2.00;99.90;;;;;;5054016;28;20209;-90
2022/01/14 01:27:40;;;;;;;17.92;11.85;;;-2.10;99.90;;;;;;5056785;28;20256;-89
2022/01/14 01:30:14;;;;;;;20.50;12.98;;;-2.00;99.90;;;;;;5060683;28;20594;-90
2022/01/14 01:32:46;;;;;;;19.17;11.43;;;-2.10;99.90;;;;;;5073917;28;20203;-90
2022/01/14 01:35:14;;;;;;;18.17;10.88;;;-2.10;99.90;;;;;;5067154;28;20569;-90
2022/01/14 01:37:40;;;;;;;17.05;11.63;;;-2.10;99.90;;;;;;5054560;28;20205;-89
2022/01/14 01:40:09;;;;;;;19.42;12.40;;;-2.10;99.90;;;;;;5054261;28;20205;-90
2022/01/14 01:42:40;;;;;;;21.25;12.20;;;-2.10;99.90;;;;;;5054090;28;20201;-90
2022/01/14 01:45:10;;;;;;;19.63;10.50;;;-2.10;99.90;;;;;;5054148;28;20266;-89
2022/01/14 01:47:37;;;;;;;17.98;11.70;;;-2.10;99.90;;;;;;5053668;28;20207;-89
2022/01/14 01:50:11;;;;;;;22.73;11.75;;;-2.10;99.90;;;;;;5053691;28;20240;-90
2022/01/14 01:52:38;;;;;;;18.67;11.60;;;-2.20;99.90;;;;;;5053301;28;20276;-90
2022/01/14 01:55:06;;;;;;;16.40;11.18;;;-2.20;99.90;;;;;;5053812;28;20240;-90
2022/01/14 01:57:33;;;;;;;17.77;12.23;;;-2.10;99.90;;;;;;5054095;28;20209;-90
2022/01/14 02:00:02;;;;;;;18.17;11.00;;;-2.20;99.90;;;;;;5053920;28;20294;-90
2022/01/14 02:02:29;;;;;;;17.75;12.02;;;-2.20;99.90;;;;;;5053389;28;20577;-90
2022/01/14 02:04:58;;;;;;;19.08;11.00;;;-2.20;99.90;;;;;;5053249;28;20217;-90
2022/01/14 02:07:25;;;;;;;19.08;12.00;;;-2.10;99.90;;;;;;5053646;28;20606;-91
2022/01/14 02:09:52;;;;;;;20.45;12.00;;;-2.20;99.90;;;;;;5053140;28;20633;-89
2022/01/14 02:12:20;;;;;;;25.02;12.55;;;-2.20;99.90;;;;;;5053527;28;20201;-90
2022/01/14 02:15:06;;;;;;;19.60;12.57;;;-2.20;99.90;;;;;;5053331;28;20652;-89
2022/01/14 02:17:47;;;;;;;18.67;13.07;;;-2.20;99.90;;;;;;5053302;28;20219;-90
2022/01/14 02:23:04;;;;;;;21.35;12.30;;;-2.20;99.90;;;;;;5052831;28;20744;-90
2022/01/14 02:25:31;;;;;;;20.35;13.02;;;-2.20;99.90;;;;;;5053222;28;20288;-90
2022/01/14 02:28:00;;;;;;;19.90;14.32;;;-2.20;99.90;;;;;;5053602;28;20948;-90
2022/01/14 02:30:29;;;;;;;18.38;12.43;;;-2.20;99.90;;;;;;5053697;28;20232;-90
2022/01/14 02:32:56;;;;;;;23.80;12.80;;;-2.20;99.90;;;;;;5053248;28;20254;-90
2022/01/14 02:35:25;;;;;;;22.48;13.20;;;-2.20;99.90;;;;;;5053387;28;20216;-89
2022/01/14 02:37:52;;;;;;;21.45;13.55;;;-2.20;99.90;;;;;;5054921;28;20213;-90
2022/01/14 02:40:19;;;;;;;20.27;13.85;;;-2.30;99.90;;;;;;5056158;28;20201;-90
2022/01/14 02:42:47;;;;;;;20.98;13.20;;;-2.30;99.90;;;;;;5055660;28;20208;-90
2022/01/14 02:45:15;;;;;;;20.35;13.43;;;-2.30;99.90;;;;;;5059695;28;20201;-90
2022/01/14 02:47:43;;;;;;;17.35;12.30;;;-2.30;99.90;;;;;;5066885;28;20697;-89
2022/01/14 02:50:16;;;;;;;20.95;13.40;;;-2.30;99.90;;;;;;5070022;28;20205;-90
2022/01/14 02:52:56;;;;;;;22.23;14.30;;;-2.30;99.90;;;;;;5067868;28;20228;-90
2022/01/14 02:55:30;;;;;;;20.02;13.48;;;-2.30;99.90;;;;;;5063739;28;20205;-90
2022/01/14 02:58:06;;;;;;;22.70;13.50;;;-2.30;99.90;;;;;;5056754;28;20255;-90
2022/01/14 03:00:33;;;;;;;23.77;15.68;;;-2.30;99.90;;;;;;5053950;28;20673;-90
2022/01/14 03:03:01;;;;;;;20.63;14.32;;;-2.30;99.90;;;;;;5053109;28;20235;-90
2022/01/14 03:05:30;;;;;;;19.20;12.77;;;-2.40;99.90;;;;;;5052598;28;20662;-91
2022/01/14 03:07:59;;;;;;;20.33;12.52;;;-2.40;99.90;;;;;;5053772;28;20216;-90
2022/01/14 03:10:26;;;;;;;21.83;14.00;;;-2.40;99.90;;;;;;5053091;28;20580;-90
2022/01/14 03:12:53;;;;;;;22.95;13.75;;;-2.40;99.90;;;;;;5052167;28;20225;-90
2022/01/14 03:15:20;;;;;;;20.55;14.23;;;-2.40;99.90;;;;;;5053069;28;20223;-90
2022/01/14 03:17:47;;;;;;;19.38;13.18;;;-2.40;99.90;;;;;;5052719;28;20197;-90
2022/01/14 03:20:38;;;;;;;21.50;12.85;;;-2.40;99.90;;;;;;5053288;28;20700;-91
2022/01/14 03:23:06;;;;;;;20.90;13.43;;;-2.40;99.90;;;;;;5054045;28;20231;-91
2022/01/14 03:25:47;;;;;;;18.60;13.40;;;-2.40;99.90;;;;;;5064027;22;20234;-75
2022/01/14 03:28:14;;;;;;;19.00;12.50;;;-2.40;99.90;;;;;;5033572;28;20214;-74
2022/01/14 03:30:41;;;;;;;23.40;12.45;;;-2.40;99.90;;;;;;5033637;28;20579;-75
2022/01/14 03:33:07;;;;;;;18.63;13.38;;;-2.40;99.90;;;;;;5032921;28;20255;-75
2022/01/14 03:35:34;;;;;;;18.27;12.13;;;-2.40;99.90;;;;;;5033392;28;20230;-75
2022/01/14 03:38:02;;;;;;;18.90;13.55;;;-2.40;99.90;;;;;;5033285;28;20726;-75
2022/01/14 03:40:29;;;;;;;22.92;13.45;;;-2.40;99.90;;;;;;5033575;28;20205;-75
2022/01/14 03:42:56;;;;;;;18.42;13.18;;;-2.40;99.90;;;;;;5032766;28;20201;-75
2022/01/14 03:45:23;;;;;;;22.33;13.23;;;-2.40;99.90;;;;;;5033315;28;20217;-75
2022/01/14 03:47:49;;;;;;;22.60;13.55;;;-2.50;99.90;;;;;;5033311;28;20232;-75
2022/01/14 03:50:16;;;;;;;16.80;12.32;;;-2.40;99.90;;;;;;5035621;28;20205;-75
2022/01/14 03:52:43;;;;;;;19.58;13.60;;;-2.40;99.90;;;;;;5033390;28;20389;-75
2022/01/14 03:55:12;;;;;;;16.85;12.68;;;-2.40;99.90;;;;;;5033328;28;20592;-75
2022/01/14 03:57:38;;;;;;;21.15;13.05;;;-2.40;99.90;;;;;;5033460;28;20198;-75
2022/01/14 04:00:07;;;;;;;22.83;13.27;;;-2.40;99.90;;;;;;5033280;28;20209;-75
2022/01/14 04:02:33;;;;;;;17.58;12.73;;;-2.40;99.90;;;;;;5032921;28;20516;-75
2022/01/14 04:05:00;;;;;;;20.58;13.38;;;-2.40;99.90;;;;;;5033027;28;20218;-76
2022/01/14 04:07:27;;;;;;;22.63;13.70;;;-2.40;99.90;;;;;;5032989;28;20731;-75
2022/01/14 04:09:54;;;;;;;20.75;13.18;;;-2.50;99.90;;;;;;5032987;28;20210;-75
2022/01/14 04:12:33;;;;;;;20.83;13.23;;;-2.50;99.90;;;;;;5032525;28;20205;-75
2022/01/14 04:17:44;;;;;;;20.92;13.05;;;-2.50;99.90;;;;;;5033102;28;20776;-75
2022/01/14 04:20:11;;;;;;;20.27;13.82;;;-2.50;99.90;;;;;;5033032;28;20263;-75
2022/01/14 04:22:39;;;;;;;19.17;14.05;;;-2.50;99.90;;;;;;5032387;28;20205;-76
2022/01/14 04:25:07;;;;;;;19.63;13.73;;;-2.50;99.90;;;;;;5032819;28;20677;-75
2022/01/14 04:27:35;;;;;;;20.08;12.88;;;-2.50;99.90;;;;;;5033241;28;20720;-76
2022/01/14 04:30:02;;;;;;;22.25;14.45;;;-2.50;99.90;;;;;;5032970;28;20202;-75
2022/01/14 04:32:29;;;;;;;23.05;14.45;;;-2.50;99.90;;;;;;5032275;28;20209;-75
2022/01/14 04:34:55;;;;;;;25.27;14.20;;;-2.50;99.90;;;;;;5032158;28;20226;-76
2022/01/14 04:37:22;;;;;;;20.58;13.52;;;-2.50;99.90;;;;;;5032623;28;20202;-75
2022/01/14 04:39:49;;;;;;;20.60;13.70;;;-2.50;99.90;;;;;;5032469;28;20229;-76
2022/01/14 04:42:16;;;;;;;19.63;12.55;;;-2.50;99.90;;;;;;5032367;28;20205;-76
2022/01/14 04:44:44;;;;;;;17.75;13.65;;;-2.50;99.90;;;;;;5032493;28;20236;-76
2022/01/14 04:47:17;;;;;;;19.90;14.35;;;-2.50;99.90;;;;;;5032158;28;20233;-76
2022/01/14 04:49:43;;;;;;;20.98;12.52;;;-2.50;99.90;;;;;;5032535;28;20209;-77
2022/01/14 04:52:10;;;;;;;21.75;14.13;;;-2.50;99.90;;;;;;5031371;28;20213;-76
2022/01/14 04:54:37;;;;;;;23.08;14.25;;;-2.50;99.90;;;;;;5032366;28;20713;-76
2022/01/14 04:57:04;;;;;;;21.95;14.43;;;-2.50;99.90;;;;;;5031945;28;20595;-76
2022/01/14 04:59:31;;;;;;;22.70;15.05;;;-2.50;99.90;;;;;;5032268;28;20696;-75
2022/01/14 05:01:59;;;;;;;20.40;14.27;;;-2.50;99.90;;;;;;5031088;28;20202;-75
2022/01/14 05:04:26;;;;;;;20.00;13.65;;;-2.60;99.90;;;;;;5032140;28;20222;-76
2022/01/14 05:06:59;;;;;;;21.40;13.77;;;-2.60;99.90;;;;;;5031696;28;20218;-75
2022/01/14 05:09:32;;;;;;;21.15;14.00;;;-2.60;99.90;;;;;;5032310;28;20271;-75
2022/01/14 05:12:06;;;;;;;19.83;12.95;;;-2.60;99.90;;;;;;5031162;28;20206;-75
2022/01/14 05:14:33;;;;;;;20.05;13.93;;;-2.60;99.90;;;;;;5031959;28;20218;-75
2022/01/14 05:33:16;;;;;;;22.35;14.27;;;-2.60;99.90;;;;;;5775919;22;20257;-76
2022/01/14 05:35:43;;;;;;;19.98;13.57;;;-2.60;99.90;;;;;;5007485;28;20668;-77
2022/01/14 05:38:11;;;;;;;18.85;12.40;;;-2.70;99.90;;;;;;5009535;28;20214;-76
2022/01/14 05:40:37;;;;;;;21.08;13.40;;;-2.70;99.90;;;;;;5006799;28;20666;-76
2022/01/14 05:43:04;;;;;;;20.08;12.82;;;-2.70;99.90;;;;;;5009100;28;20203;-75
2022/01/14 05:45:31;;;;;;;20.33;13.30;;;-2.70;99.90;;;;;;5007931;28;20270;-75
2022/01/14 05:47:58;;;;;;;21.92;14.05;;;-2.70;99.90;;;;;;5009170;28;20218;-74
2022/01/14 05:50:27;;;;;;;20.00;13.15;;;-2.70;99.90;;;;;;5010112;28;20205;-74
2022/01/14 05:52:54;;;;;;;22.58;13.93;;;-2.70;99.90;;;;;;5008840;28;20584;-75
2022/01/14 05:55:21;;;;;;;19.40;13.98;;;-2.70;99.90;;;;;;5009191;28;20968;-75
2022/01/14 05:57:48;;;;;;;20.73;12.80;;;-2.70;99.90;;;;;;5009259;28;20194;-74
2022/01/14 06:00:18;;;;;;;19.60;12.70;;;-2.70;99.90;;;;;;5008404;28;20210;-76
2022/01/14 06:02:46;;;;;;;21.17;14.23;;;-2.70;99.90;;;;;;5008991;28;20213;-77
2022/01/14 06:05:13;;;;;;;18.80;11.85;;;-2.70;99.90;;;;;;5009462;28;20229;-77
2022/01/14 06:07:41;;;;;;;19.85;12.70;;;-2.70;99.90;;;;;;5011385;28;20226;-77
2022/01/14 06:10:09;;;;;;;19.02;12.63;;;-2.70;99.90;;;;;;5010990;28;20206;-77
2022/01/14 06:12:36;;;;;;;22.17;11.98;;;-2.70;99.90;;;;;;5010877;28;20670;-77
2022/01/14 06:15:03;;;;;;;17.55;11.75;;;-2.70;99.90;;;;;;5010846;28;20245;-76
2022/01/14 06:17:30;;;;;;;17.10;12.10;;;-2.70;99.90;;;;;;5013881;28;20653;-77
2022/01/14 06:19:56;;;;;;;16.42;11.23;;;-2.70;99.90;;;;;;5024458;28;20478;-75
2022/01/14 06:22:23;;;;;;;18.77;11.80;;;-2.70;99.90;;;;;;5017814;28;20206;-77
2022/01/14 06:24:51;;;;;;;17.73;11.50;;;-2.70;99.90;;;;;;5017100;28;20215;-75
2022/01/14 06:27:18;;;;;;;19.40;12.55;;;-2.70;99.90;;;;;;5013858;28;20235;-75
2022/01/14 06:29:45;;;;;;;19.95;11.75;;;-2.80;99.90;;;;;;5011292;28;20666;-76
2022/01/14 06:32:12;;;;;;;19.33;12.05;;;-2.80;99.90;;;;;;5007930;28;20202;-75
2022/01/14 06:34:38;;;;;;;16.20;12.07;;;-2.80;99.90;;;;;;5010226;28;20226;-75
2022/01/14 06:37:05;;;;;;;18.92;12.05;;;-2.80;99.90;;;;;;5014428;28;20199;-76
2022/01/14 06:39:32;;;;;;;17.00;11.80;;;-2.80;99.90;;;;;;5018964;28;20199;-77
2022/01/14 06:42:01;;;;;;;15.32;10.35;;;-2.80;99.90;;;;;;5009184;28;20716;-75
2022/01/14 06:44:28;;;;;;;16.17;11.18;;;-2.80;99.90;;;;;;5007999;28;20602;-75
2022/01/14 06:46:54;;;;;;;15.05;10.30;;;-2.80;99.90;;;;;;5009462;28;20735;-75
2022/01/14 06:49:21;;;;;;;13.30;10.07;;;-2.80;99.90;;;;;;5013460;28;20217;-72
2022/01/14 06:51:48;;;;;;;16.05;10.38;;;-2.70;99.90;;;;;;5014941;28;20206;-75
2022/01/14 06:54:15;;;;;;;16.08;11.75;;;-2.70;99.90;;;;;;5014653;28;20587;-75
2022/01/14 06:56:42;;;;;;;15.73;11.55;;;-2.70;99.90;;;;;;5012060;28;20202;-74
2022/01/14 06:59:13;;;;;;;15.70;9.95;;;-2.70;99.90;;;;;;5015509;28;20213;-75
2022/01/14 07:01:40;;;;;;;17.25;11.25;;;-2.70;99.90;;;;;;5015564;28;20202;-76
2022/01/14 07:04:08;;;;;;;14.93;10.32;;;-2.70;99.90;;;;;;5015152;28;20250;-75
2022/01/14 07:06:35;;;;;;;16.27;11.02;;;-2.70;99.90;;;;;;5015639;28;20218;-75
2022/01/14 07:09:01;;;;;;;16.17;11.38;;;-2.70;99.90;;;;;;5015376;28;20214;-74
2022/01/14 07:11:35;;;;;;;15.73;11.35;;;-2.70;99.90;;;;;;5014683;28;20209;-73
2022/01/14 07:14:02;;;;;;;13.35;10.93;;;-2.70;99.90;;;;;;5014196;28;20226;-74
2022/01/14 07:16:30;;;;;;;16.90;10.85;;;-2.70;99.90;;;;;;5013300;28;20659;-74
2022/01/14 07:18:56;;;;;;;17.92;12.27;;;-2.70;99.90;;;;;;5015957;28;20497;-73
2022/01/14 07:21:23;;;;;;;16.33;10.75;;;-2.60;99.90;;;;;;5014174;28;20669;-71
2022/01/14 07:23:50;;;;;;;14.38;10.23;;;-2.60;99.90;;;;;;5013873;28;20226;-71
2022/01/14 07:26:17;;;;;;;17.05;10.40;;;-2.70;99.90;;;;;;5013824;28;20202;-71
2022/01/14 07:28:47;;;;;;;15.43;10.30;;;-2.60;99.90;;;;;;5014067;28;20222;-73
2022/01/14 07:31:14;;;;;;;20.05;10.35;;;-2.70;99.90;;;;;;5013631;28;20205;-72
2022/01/14 07:33:42;;;;;;;14.85;10.63;;;-2.60;99.90;;;;;;5013736;28;20225;-72
2022/01/14 07:36:08;;;;;;;19.20;11.60;;;-2.60;99.90;;;;;;5020655;28;20214;-73
2022/01/14 07:38:35;;;;;;;18.33;12.80;;;-2.60;99.90;;;;;;5014404;28;20198;-72
2022/01/14 07:41:05;;;;;;;15.80;11.45;;;-2.50;99.90;;;;;;5014139;28;20207;-71
2022/01/14 07:43:32;;;;;;;17.13;10.43;;;-2.50;99.90;;;;;;5013406;28;20210;-74
2022/01/14 07:45:58;;;;;;;18.05;11.38;;;-2.50;99.90;;;;;;5013316;28;20213;-72
2022/01/14 07:48:25;;;;;;;18.38;11.63;;;-2.50;99.90;;;;;;5013415;28;20227;-72
2022/01/14 07:50:53;;;;;;;12.98;10.38;;;-2.40;99.90;;;;;;5009220;28;20591;-74
2022/01/14 07:53:20;;;;;;;12.77;10.43;;;-2.40;99.90;;;;;;5010692;28;20198;-74
2022/01/14 07:55:48;;;;;;;15.20;11.18;;;-2.40;99.90;;;;;;5013181;28;20229;-75
2022/01/14 07:58:15;;;;;;;17.17;12.70;;;-2.30;99.90;;;;;;5011914;28;20454;-72
2022/01/14 08:00:43;;;;;;;19.95;12.65;;;-2.20;99.90;;;;;;5011650;28;20468;-71
2022/01/14 08:03:09;;;;;;;14.57;10.25;;;-2.00;99.90;;;;;;5011068;28;20203;-73
2022/01/14 08:05:36;;;;;;;13.30;9.80;;;-1.80;99.90;;;;;;5011417;28;20237;-73
2022/01/14 08:08:07;;;;;;;12.45;8.80;;;-1.50;99.90;;;;;;5010752;28;20296;-74
2022/01/14 08:10:35;;;;;;;13.60;9.98;;;-1.10;99.90;;;;;;5011868;28;20206;-73
2022/01/14 08:13:03;;;;;;;11.27;8.20;;;-0.80;99.90;;;;;;5010715;28;20210;-74
2022/01/14 08:15:31;;;;;;;11.73;8.70;;;-0.40;99.90;;;;;;5011265;28;20801;-73
2022/01/14 08:18:01;;;;;;;9.65;7.95;;;0.10;99.90;;;;;;5012615;28;20199;-73
2022/01/14 08:20:28;;;;;;;11.45;7.75;;;0.50;99.90;;;;;;5012363;28;20309;-71
2022/01/14 08:22:55;;;;;;;10.52;7.65;;;1.10;99.90;;;;;;5012698;28;20209;-74
2022/01/14 08:25:24;;;;;;;10.27;7.18;;;2.10;99.90;;;;;;5011987;28;20289;-73
2022/01/14 08:27:52;;;;;;;10.90;7.60;;;3.00;99.90;;;;;;5012049;28;20226;-73
2022/01/14 08:30:19;;;;;;;7.63;6.60;;;3.70;99.90;;;;;;5011990;28;20198;-73
2022/01/14 08:32:46;;;;;;;10.13;7.30;;;4.60;99.90;;;;;;5011349;28;20206;-73
2022/01/14 08:35:13;;;;;;;8.85;6.65;;;5.50;99.90;;;;;;5011365;28;20237;-74
2022/01/14 08:37:41;;;;;;;10.60;7.30;;;6.40;99.90;;;;;;5012238;28;20202;-72
2022/01/14 08:40:09;;;;;;;9.68;7.72;;;7.50;99.90;;;;;;5011711;28;20317;-72
2022/01/14 08:42:38;;;;;;;8.63;7.43;;;8.50;99.90;;;;;;5011515;28;20213;-72
2022/01/14 08:45:06;;;;;;;11.30;8.38;;;9.10;99.90;;;;;;5011775;28;20578;-73
2022/01/14 08:47:33;;;;;;;12.82;8.52;;;9.50;99.90;;;;;;5012408;28;20280;-72
2022/01/14 08:49:59;;;;;;;10.60;7.72;;;9.60;99.50;;;;;;5011725;28;20207;-72
2022/01/14 08:52:26;;;;;;;11.75;9.27;;;9.60;99.00;;;;;;5011842;28;20214;-73
2022/01/14 08:54:56;;;;;;;10.60;8.90;;;9.60;98.80;;;;;;5012077;28;20237;-72
2022/01/14 08:57:23;;;;;;;13.60;10.07;;;9.50;98.70;;;;;;5012542;28;20212;-73
2022/01/14 08:59:51;;;;;;;14.15;10.90;;;9.60;98.50;;;;;;5011522;28;20209;-72
2022/01/14 09:02:18;;;;;;;12.07;10.10;;;9.60;98.40;;;;;;5009920;28;20576;-72
2022/01/14 09:04:45;;;;;;;10.60;9.52;;;9.60;98.30;;;;;;5014745;28;20225;-72
2022/01/14 09:07:12;;;;;;;16.65;10.23;;;9.60;98.30;;;;;;5012921;28;20209;-77
2022/01/14 09:09:38;;;;;;;13.23;10.82;;;9.60;98.20;;;;;;5012099;28;20202;-75
2022/01/14 09:12:06;;;;;;;13.05;10.23;;;9.50;98.10;;;;;;5011943;28;20203;-75
2022/01/14 09:14:33;;;;;;;10.77;9.68;;;9.30;98.30;;;;;;5011404;28;20232;-74
2022/01/14 09:17:02;;;;;;;13.68;10.40;;;9.10;98.50;;;;;;5011450;28;20211;-75
2022/01/14 09:19:29;;;;;;;16.20;11.18;;;8.80;98.80;;;;;;5011268;28;20226;-77
2022/01/14 09:21:56;;;;;;;13.05;9.70;;;8.60;99.90;;;;;;5011310;28;20688;-76
2022/01/14 09:24:23;;;;;;;13.48;10.88;;;8.40;99.90;;;;;;5010660;28;20226;-75
2022/01/14 09:26:49;;;;;;;13.90;11.35;;;9.00;99.90;;;;;;5010363;28;20202;-76
2022/01/14 09:29:16;;;;;;;14.70;10.70;;;10.70;98.60;;;;;;5010795;28;20226;-75
2022/01/14 09:31:43;;;;;;;14.88;11.10;;;13.00;96.20;;;;;;5011460;28;20593;-77
2022/01/14 09:34:11;;;;;;;12.82;10.98;;;15.10;93.60;;;;;;5009105;28;20226;-77
2022/01/14 09:36:38;;;;;;;12.70;10.70;;;16.70;91.60;;;;;;5010746;28;20214;-78
2022/01/14 09:39:04;;;;;;;11.67;10.47;;;17.90;90.00;;;;;;5010026;28;20490;-77
2022/01/14 09:41:31;;;;;;;15.00;11.40;;;18.80;87.80;;;;;;5007979;28;21191;-76
2022/01/14 09:43:58;;;;;;;13.10;11.17;;;19.10;87.10;;;;;;5010177;28;20484;-75
2022/01/14 09:46:25;;;;;;;12.90;10.87;;;19.40;85.80;;;;;;5008798;28;20469;-73
2022/01/14 09:48:51;;;;;;;15.00;11.70;;;19.60;84.60;;;;;;5010518;28;20489;-73
2022/01/14 09:51:20;;;;;;;11.77;10.57;;;19.40;84.50;;;;;;5010962;28;20461;-73
2022/01/14 09:53:47;;;;;;;15.90;13.20;;;19.10;83.80;;;;;;5009985;28;20500;-73
2022/01/14 09:56:16;;;;;;;12.27;10.97;;;19.40;84.60;;;;;;5010709;28;20461;-74
2022/01/14 09:58:46;;;;;;;17.03;12.83;;;19.90;84.40;;;;;;5010743;28;20516;-73
2022/01/14 10:01:15;;;;;;;14.10;12.43;;;20.60;81.60;;;;;;5010276;28;20965;-74
2022/01/14 10:03:53;;;;;;;14.50;13.00;;;20.90;81.50;;;;;;5010241;28;20465;-74
2022/01/14 10:06:39;;;;;;;16.30;12.23;;;20.90;79.90;;;;;;5010140;28;21031;-73
2022/01/14 10:09:09;;;;;;;13.80;11.07;;;20.70;80.10;;;;;;5010386;28;20493;-72
2022/01/14 10:11:36;;;;;;;15.20;12.40;;;20.50;81.20;;;;;;5010570;28;20453;-72
2022/01/14 10:14:09;;;;;;;13.33;11.53;;;20.50;81.20;;;;;;5009515;28;20526;-76
2022/01/14 10:16:36;;;;;;;16.07;12.67;;;20.30;81.80;;;;;;5010323;28;20520;-75
2022/01/14 10:19:04;;;;;;;13.47;12.07;;;20.90;80.80;;;;;;5010073;28;20525;-74
2022/01/14 10:21:33;;;;;;;13.83;12.40;;;21.40;79.50;;;;;;5010434;28;20989;-73
2022/01/14 10:24:01;;;;;;;14.90;12.60;;;21.30;79.20;;;;;;5009689;28;20485;-73
2022/01/14 10:26:30;;;;;;;13.40;12.03;;;21.20;79.00;;;;;;5010147;28;20488;-72
2022/01/14 10:29:01;;;;;;;14.30;11.90;;;21.30;78.50;;;;;;5008354;28;20485;-72
2022/01/14 10:31:35;;;;;;;15.00;11.70;;;21.30;79.60;;;;;;5009906;28;20472;-73
2022/01/14 10:34:10;;;;;;;12.40;11.10;;;21.90;78.90;;;;;;5009655;28;20480;-74
2022/01/14 10:36:37;;;;;;;15.63;12.10;;;21.60;78.00;;;;;;5009991;28;20472;-74
2022/01/14 10:39:22;;;;;;;13.57;12.13;;;21.60;78.20;;;;;;5009799;28;20461;-74
2022/01/14 10:41:49;;;;;;;13.30;12.00;;;21.50;79.20;;;;;;5010382;28;20457;-73
2022/01/14 10:44:32;;;;;;;12.20;10.53;;;21.80;79.40;;;;;;5009016;28;20482;-76
2022/01/14 10:47:15;;;;;;;11.73;9.80;;;21.70;79.40;;;;;;5011165;28;20480;-77
2022/01/14 10:49:43;;;;;;;10.50;9.20;;;21.90;77.30;;;;;;5009996;28;20496;-76
2022/01/14 10:52:15;;;;;;;9.13;8.23;;;21.80;78.60;;;;;;5009220;28;20457;-75
2022/01/14 10:54:46;;;;;;;9.23;8.27;;;22.20;78.60;;;;;;5010051;28;20508;-75
2022/01/14 10:57:18;;;;;;;7.67;6.97;;;22.30;77.10;;;;;;5010549;28;20468;-73
2022/01/14 10:59:46;;;;;;;8.37;7.40;;;22.30;76.60;;;;;;5011092;28;20468;-76
2022/01/14 11:02:33;;;;;;;8.67;6.97;;;22.40;77.10;;;;;;5009519;28;20465;-69
2022/01/14 11:05:09;;;;;;;8.33;6.80;;;22.00;77.80;;;;;;5009981;28;20492;-76
2022/01/14 11:07:35;;;;;;;8.20;7.40;;;21.70;77.50;;;;;;5010632;28;20461;-77
2022/01/14 11:10:18;;;;;;;7.37;6.67;;;21.70;78.30;;;;;;5010082;28;20485;-75
2022/01/14 11:12:45;;;;;;;7.40;6.70;;;21.90;77.50;;;;;;5009530;28;20555;-75
2022/01/14 11:15:13;;;;;;;9.10;8.30;;;22.10;77.70;;;;;;5009197;28;20488;-76
2022/01/14 11:17:40;;;;;;;8.90;8.00;;;21.90;77.40;;;;;;5010203;28;20592;-76
2022/01/14 11:20:10;;;;;;;8.97;7.10;;;21.80;76.90;;;;;;5010010;28;20460;-77
2022/01/14 11:25:23;;;;;;;12.50;8.00;;;22.20;76.40;;;;;;5009645;28;20995;-75
2022/01/14 11:27:54;;;;;;;9.30;8.20;;;22.40;76.20;;;;;;5010002;28;20953;-74
2022/01/14 11:30:22;;;;;;;8.90;8.10;;;22.70;76.30;;;;;;5009728;28;20456;-74
2022/01/14 11:32:56;;;;;;;9.93;8.50;;;22.50;76.10;;;;;;5009319;28;20527;-73
2022/01/14 11:35:24;;;;;;;9.80;7.50;;;22.80;75.90;;;;;;5009108;28;20887;-77
2022/01/14 11:37:51;;;;;;;9.37;8.33;;;23.30;74.60;;;;;;5010350;28;20807;-77
2022/01/14 11:40:19;;;;;;;10.43;8.53;;;23.20;74.20;;;;;;5009907;28;20469;-76
2022/01/14 11:42:49;;;;;;;12.47;8.47;;;23.00;74.20;;;;;;5013594;28;20841;-74
2022/01/14 11:45:17;;;;;;;13.07;8.33;;;22.90;73.80;;;;;;5018132;28;20538;-75
2022/01/14 11:48:02;;;;;;;11.97;8.23;;;22.40;74.60;;;;;;5016660;28;20457;-74
2022/01/14 11:50:46;;;;;;;10.20;8.50;;;22.10;74.70;;;;;;5015086;28;20914;-77
2022/01/14 11:53:42;;;;;;;12.77;8.20;;;21.70;74.70;;;;;;5010598;28;20482;-75
2022/01/14 11:56:47;;;;;;;10.33;8.30;;;21.10;75.70;;;;;;5002428;28;20469;-75
2022/01/14 11:59:54;;;;;;;8.50;7.60;;;20.40;76.90;;;;;;5013101;28;20485;-73
2022/01/14 12:02:39;;;;;;;9.77;7.83;;;20.10;77.50;;;;;;5012380;28;20457;-74
2022/01/14 12:05:14;;;;;;;9.43;7.80;;;19.60;77.60;;;;;;5012975;28;20488;-73
2022/01/14 12:08:21;;;;;;;10.33;7.37;;;19.40;78.20;;;;;;5010286;28;20571;-75
2022/01/14 12:10:49;;;;;;;7.90;7.00;;;19.50;77.90;;;;;;5012370;28;20544;-71
2022/01/14 12:13:20;;;;;;;9.93;8.00;;;19.70;77.60;;;;;;5011122;28;20461;-70
2022/01/14 12:15:55;;;;;;;8.73;7.33;;;19.80;77.50;;;;;;5011231;28;20508;-69
2022/01/14 12:18:55;;;;;;;9.50;8.13;;;19.70;77.80;;;;;;5011753;28;20468;-70
2022/01/14 12:21:55;;;;;;;11.60;7.60;;;19.80;77.60;;;;;;5011675;28;20488;-70
2022/01/14 12:24:30;;;;;;;8.70;7.83;;;19.60;77.90;;;;;;5010160;28;20485;-69
2022/01/14 12:27:22;;;;;;;9.70;8.70;;;19.40;78.60;;;;;;5010801;28;20456;-69
2022/01/14 12:29:51;;;;;;;9.07;8.17;;;19.20;79.10;;;;;;4998642;28;20568;-69
2022/01/14 12:32:19;;;;;;;10.30;9.30;;;19.10;79.90;;;;;;5010542;28;20553;-75
2022/01/14 12:35:01;;;;;;;11.03;8.80;;;18.70;80.00;;;;;;5012525;28;20525;-73
2022/01/14 12:37:32;;;;;;;10.40;9.30;;;18.20;81.30;;;;;;4996771;28;20465;-75
2022/01/14 12:40:03;;;;;;;12.20;8.90;;;17.50;82.20;;;;;;5011735;28;20457;-73
2022/01/14 12:42:30;;;;;;;11.63;9.57;;;17.20;84.00;;;;;;5011193;28;20469;-74
2022/01/14 12:44:58;;;;;;;14.70;9.07;;;16.70;84.50;;;;;;5010861;28;20855;-73
2022/01/14 12:47:31;;;;;;;11.67;8.53;;;16.40;85.80;;;;;;5010796;28;20472;-74
2022/01/14 12:50:02;;;;;;;11.13;8.03;;;16.30;86.60;;;;;;5011181;28;20564;-74
2022/01/14 12:52:37;;;;;;;14.20;9.10;;;16.40;86.40;;;;;;5010286;28;20469;-74
2022/01/14 12:55:05;;;;;;;12.33;7.73;;;16.30;86.60;;;;;;5010615;28;20632;-74
2022/01/14 12:57:32;;;;;;;11.80;9.23;;;16.30;86.50;;;;;;5011055;28;20469;-74
2022/01/14 12:59:59;;;;;;;11.17;8.67;;;16.30;86.50;;;;;;5011788;28;20468;-74
2022/01/14 13:02:29;;;;;;;13.63;9.40;;;16.10;86.60;;;;;;5012474;28;20892;-72
2022/01/14 13:05:01;;;;;;;9.67;8.07;;;15.90;87.70;;;;;;5012821;28;20485;-73
2022/01/14 13:07:28;;;;;;;11.90;7.80;;;16.00;87.70;;;;;;5011406;28;20461;-72
2022/01/14 13:09:56;;;;;;;10.80;8.50;;;16.00;87.50;;;;;;5007408;28;20846;-73
2022/01/14 13:12:28;;;;;;;9.93;7.87;;;16.00;87.40;;;;;;5011026;28;20465;-75
2022/01/14 13:14:59;;;;;;;15.10;8.60;;;15.80;87.80;;;;;;5011025;28;20887;-76